createdAt,value
2022-08-25T00:00:50.072Z,1004.78
2022-08-25T00:01:50.038Z,1004.80
2022-08-25T00:02:55.950Z,1004.82
2022-08-25T00:03:51.010Z,1004.83
2022-08-25T00:04:53.897Z,1004.81
2022-08-25T00:05:50.046Z,1004.88
2022-08-25T00:06:49.974Z,1004.86
2022-08-25T00:07:49.961Z,1004.84
2022-08-25T00:08:49.949Z,1004.88
2022-08-25T00:09:49.931Z,1004.89
2022-08-25T00:11:00.345Z,1004.81
2022-08-25T00:11:50.908Z,1004.86
2022-08-25T00:12:49.892Z,1004.82
2022-08-25T00:13:49.888Z,1004.82
2022-08-25T00:14:49.869Z,1004.80
2022-08-25T00:15:49.898Z,1004.79
2022-08-25T00:16:49.846Z,1004.81
2022-08-25T00:17:49.821Z,1004.78
2022-08-25T00:18:49.811Z,1004.78
2022-08-25T00:19:49.823Z,1004.75
2022-08-25T00:20:49.802Z,1004.78
2022-08-25T00:21:49.769Z,1004.73
2022-08-25T00:22:49.762Z,1004.76
2022-08-25T00:23:49.743Z,1004.78
2022-08-25T00:24:49.734Z,1004.80
2022-08-25T00:25:49.732Z,1004.78
2022-08-25T00:26:49.715Z,1004.82
2022-08-25T00:27:49.691Z,1004.80
2022-08-25T00:28:49.691Z,1004.76
2022-08-25T00:29:49.660Z,1004.81
2022-08-25T00:30:49.791Z,1004.80
2022-08-25T00:31:49.645Z,1004.79
2022-08-25T00:32:55.281Z,1004.83
2022-08-25T00:33:50.614Z,1004.82
2022-08-25T00:34:49.604Z,1004.84
2022-08-25T00:35:49.597Z,1004.87
2022-08-25T00:36:49.574Z,1004.82
2022-08-25T00:37:49.553Z,1004.81
2022-08-25T00:38:49.556Z,1004.83
2022-08-25T00:39:49.562Z,1004.86
2022-08-25T00:40:49.535Z,1004.88
2022-08-25T00:41:49.505Z,1004.89
2022-08-25T00:42:49.495Z,1004.86
2022-08-25T00:43:49.487Z,1004.86
2022-08-25T00:44:49.462Z,1004.85
2022-08-25T00:45:49.493Z,1004.86
2022-08-25T00:46:49.444Z,1004.86
2022-08-25T00:47:49.425Z,1004.84
2022-08-25T00:48:49.417Z,1004.84
2022-08-25T00:49:49.400Z,1004.88
2022-08-25T00:50:49.394Z,1004.82
2022-08-25T00:51:49.373Z,1004.88
2022-08-25T00:52:49.361Z,1004.85
2022-08-25T00:53:49.347Z,1004.83
2022-08-25T00:54:49.325Z,1004.81
2022-08-25T00:55:49.331Z,1004.79
2022-08-25T00:56:49.304Z,1004.82
2022-08-25T00:57:49.285Z,1004.77
2022-08-25T00:58:49.279Z,1004.74
2022-08-25T00:59:49.282Z,1004.77
2022-08-25T01:00:49.245Z,1004.73
2022-08-25T01:01:49.303Z,1004.73
2022-08-25T01:02:49.281Z,1004.74
2022-08-25T01:03:49.213Z,1004.74
2022-08-25T01:04:49.368Z,1004.75
2022-08-25T01:05:49.191Z,1004.75
2022-08-25T01:06:49.168Z,1004.73
2022-08-25T01:07:49.154Z,1004.70
2022-08-25T01:08:49.144Z,1004.72
2022-08-25T01:09:49.148Z,1004.76
2022-08-25T01:10:49.114Z,1004.73
2022-08-25T01:11:49.109Z,1004.75
2022-08-25T01:12:49.086Z,1004.70
2022-08-25T01:13:49.076Z,1004.71
2022-08-25T01:14:49.071Z,1004.71
2022-08-25T01:15:49.118Z,1004.67
2022-08-25T01:16:51.087Z,1004.67
2022-08-25T01:17:49.018Z,1004.67
2022-08-25T01:18:49.003Z,1004.67
2022-08-25T01:19:49.014Z,1004.68
2022-08-25T01:20:48.976Z,1004.66
2022-08-25T01:21:48.977Z,1004.56
2022-08-25T01:22:55.093Z,1004.61
2022-08-25T01:23:49.947Z,1004.64
2022-08-25T01:24:48.938Z,1004.62
2022-08-25T01:25:48.915Z,1004.56
2022-08-25T01:26:48.898Z,1004.56
2022-08-25T01:27:48.886Z,1004.55
2022-08-25T01:28:48.874Z,1004.52
2022-08-25T01:29:48.875Z,1004.57
2022-08-25T01:30:48.964Z,1004.53
2022-08-25T01:31:48.838Z,1004.53
2022-08-25T01:32:48.815Z,1004.51
2022-08-25T01:33:48.805Z,1004.53
2022-08-25T01:34:48.799Z,1004.47
2022-08-25T01:35:48.777Z,1004.48
2022-08-25T01:36:48.768Z,1004.46
2022-08-25T01:37:48.753Z,1004.52
2022-08-25T01:38:48.735Z,1004.51
2022-08-25T01:39:48.785Z,1004.46
2022-08-25T01:40:48.719Z,1004.50
2022-08-25T01:41:48.706Z,1004.52
2022-08-25T01:42:48.678Z,1004.53
2022-08-25T01:43:48.665Z,1004.51
2022-08-25T01:44:48.666Z,1004.50
2022-08-25T01:45:48.703Z,1004.51
2022-08-25T01:46:48.636Z,1004.53
2022-08-25T01:47:48.645Z,1004.52
2022-08-25T01:48:48.613Z,1004.49
2022-08-25T01:49:48.589Z,1004.50
2022-08-25T01:50:48.574Z,1004.54
2022-08-25T01:51:48.588Z,1004.54
2022-08-25T01:52:48.548Z,1004.53
2022-08-25T01:53:48.552Z,1004.47
2022-08-25T01:54:48.522Z,1004.49
2022-08-25T01:55:48.504Z,1004.50
2022-08-25T01:56:48.491Z,1004.51
2022-08-25T01:57:48.486Z,1004.52
2022-08-25T01:58:48.474Z,1004.52
2022-08-25T01:59:48.463Z,1004.54
2022-08-25T02:00:48.434Z,1004.55
2022-08-25T02:01:48.477Z,1004.57
2022-08-25T02:02:52.290Z,1004.59
2022-08-25T02:03:49.414Z,1004.57
2022-08-25T02:04:48.379Z,1004.55
2022-08-25T02:05:48.786Z,1004.54
2022-08-25T02:06:48.368Z,1004.57
2022-08-25T02:07:48.346Z,1004.60
2022-08-25T02:08:48.344Z,1004.54
2022-08-25T02:09:48.314Z,1004.53
2022-08-25T02:10:48.306Z,1004.58
2022-08-25T02:11:48.295Z,1004.59
2022-08-25T02:12:48.283Z,1004.55
2022-08-25T02:13:48.278Z,1004.58
2022-08-25T02:14:48.245Z,1004.58
2022-08-25T02:15:48.239Z,1004.57
2022-08-25T02:16:48.275Z,1004.58
2022-08-25T02:17:48.216Z,1004.57
2022-08-25T02:18:48.205Z,1004.55
2022-08-25T02:19:48.186Z,1004.59
2022-08-25T02:20:48.172Z,1004.63
2022-08-25T02:21:48.163Z,1004.56
2022-08-25T02:22:56.569Z,1004.56
2022-08-25T02:23:49.149Z,1004.54
2022-08-25T02:24:48.113Z,1004.58
2022-08-25T02:25:48.107Z,1004.60
2022-08-25T02:26:48.086Z,1004.58
2022-08-25T02:27:48.095Z,1004.57
2022-08-25T02:28:48.065Z,1004.59
2022-08-25T02:29:48.047Z,1004.56
2022-08-25T02:30:48.096Z,1004.53
2022-08-25T02:31:48.030Z,1004.53
2022-08-25T02:32:48.027Z,1004.50
2022-08-25T02:33:47.997Z,1004.47
2022-08-25T02:34:47.983Z,1004.49
2022-08-25T02:35:47.975Z,1004.48
2022-08-25T02:36:47.964Z,1004.43
2022-08-25T02:37:47.957Z,1004.45
2022-08-25T02:38:47.928Z,1004.45
2022-08-25T02:39:48.011Z,1004.42
2022-08-25T02:40:47.907Z,1004.38
2022-08-25T02:41:47.900Z,1004.38
2022-08-25T02:42:47.885Z,1004.34
2022-08-25T02:43:47.863Z,1004.34
2022-08-25T02:44:47.845Z,1004.31
2022-08-25T02:45:47.879Z,1004.31
2022-08-25T02:46:47.824Z,1004.30
2022-08-25T02:47:47.822Z,1004.29
2022-08-25T02:48:47.794Z,1004.32
2022-08-25T02:49:47.795Z,1004.35
2022-08-25T02:50:47.764Z,1004.33
2022-08-25T02:51:47.766Z,1004.29
2022-08-25T02:52:47.755Z,1004.28
2022-08-25T02:53:47.739Z,1004.31
2022-08-25T02:54:47.706Z,1004.23
2022-08-25T02:55:47.697Z,1004.26
2022-08-25T02:56:47.686Z,1004.26
2022-08-25T02:57:47.686Z,1004.28
2022-08-25T02:58:47.670Z,1004.28
2022-08-25T02:59:47.647Z,1004.32
2022-08-25T03:00:47.663Z,1004.32
2022-08-25T03:01:47.628Z,1004.31
2022-08-25T03:02:47.613Z,1004.34
2022-08-25T03:03:47.637Z,1004.34
2022-08-25T03:04:47.645Z,1004.35
2022-08-25T03:05:47.568Z,1004.35
2022-08-25T03:06:47.552Z,1004.38
2022-08-25T03:07:47.545Z,1004.39
2022-08-25T03:08:47.524Z,1004.39
2022-08-25T03:09:47.514Z,1004.37
2022-08-25T03:10:47.496Z,1004.40
2022-08-25T03:11:47.490Z,1004.36
2022-08-25T03:12:47.486Z,1004.37
2022-08-25T03:13:47.457Z,1004.32
2022-08-25T03:14:47.437Z,1004.33
2022-08-25T03:15:47.437Z,1004.37
2022-08-25T03:16:47.449Z,1004.34
2022-08-25T03:17:47.417Z,1004.39
2022-08-25T03:18:47.388Z,1004.35
2022-08-25T03:19:47.376Z,1004.33
2022-08-25T03:20:47.355Z,1004.32
2022-08-25T03:21:47.369Z,1004.36
2022-08-25T03:22:47.364Z,1004.37
2022-08-25T03:23:47.325Z,1004.39
2022-08-25T03:24:47.308Z,1004.37
2022-08-25T03:25:47.302Z,1004.38
2022-08-25T03:26:47.282Z,1004.40
2022-08-25T03:27:47.290Z,1004.37
2022-08-25T03:28:47.255Z,1004.43
2022-08-25T03:29:47.240Z,1004.41
2022-08-25T03:30:47.228Z,1004.42
2022-08-25T03:31:48.246Z,1004.45
2022-08-25T03:32:47.222Z,1004.45
2022-08-25T03:33:47.186Z,1004.40
2022-08-25T03:34:47.166Z,1004.40
2022-08-25T03:35:47.157Z,1004.39
2022-08-25T03:36:47.149Z,1004.38
2022-08-25T03:37:47.153Z,1004.34
2022-08-25T03:38:47.116Z,1004.36
2022-08-25T03:39:47.141Z,1004.31
2022-08-25T03:40:47.085Z,1004.36
2022-08-25T03:41:47.080Z,1004.34
2022-08-25T03:42:47.073Z,1004.35
2022-08-25T03:43:48.233Z,1004.34
2022-08-25T03:44:47.038Z,1004.34
2022-08-25T03:45:47.080Z,1004.31
2022-08-25T03:46:47.014Z,1004.32
2022-08-25T03:47:47.014Z,1004.36
2022-08-25T03:48:46.993Z,1004.35
2022-08-25T03:49:46.966Z,1004.34
2022-08-25T03:50:51.411Z,1004.33
2022-08-25T03:51:47.971Z,1004.30
2022-08-25T03:52:46.945Z,1004.33
2022-08-25T03:53:46.926Z,1004.32
2022-08-25T03:54:46.897Z,1004.36
2022-08-25T03:55:46.885Z,1004.35
2022-08-25T03:56:46.873Z,1004.37
2022-08-25T03:57:46.879Z,1004.36
2022-08-25T03:58:46.845Z,1004.36
2022-08-25T03:59:46.834Z,1004.30
2022-08-25T04:00:46.895Z,1004.33
2022-08-25T04:01:50.217Z,1004.33
2022-08-25T04:02:47.871Z,1004.33
2022-08-25T04:03:46.785Z,1004.31
2022-08-25T04:04:46.764Z,1004.32
2022-08-25T04:05:46.753Z,1004.26
2022-08-25T04:06:46.734Z,1004.26
2022-08-25T04:07:46.737Z,1004.27
2022-08-25T04:08:46.705Z,1004.22
2022-08-25T04:09:46.705Z,1004.22
2022-08-25T04:10:46.684Z,1004.21
2022-08-25T04:11:46.673Z,1004.17
2022-08-25T04:12:46.683Z,1004.23
2022-08-25T04:13:46.651Z,1004.25
2022-08-25T04:14:46.634Z,1004.18
2022-08-25T04:15:46.622Z,1004.20
2022-08-25T04:16:46.640Z,1004.24
2022-08-25T04:17:46.606Z,1004.17
2022-08-25T04:18:46.574Z,1004.19
2022-08-25T04:19:46.568Z,1004.22
2022-08-25T04:20:46.918Z,1004.18
2022-08-25T04:21:46.542Z,1004.21
2022-08-25T04:22:46.533Z,1004.15
2022-08-25T04:23:46.515Z,1004.16
2022-08-25T04:24:46.495Z,1004.18
2022-08-25T04:25:46.494Z,1004.19
2022-08-25T04:26:46.466Z,1004.24
2022-08-25T04:27:46.463Z,1004.26
2022-08-25T04:28:46.447Z,1004.24
2022-08-25T04:29:46.425Z,1004.24
2022-08-25T04:30:49.158Z,1004.27
2022-08-25T04:31:48.725Z,1004.29
2022-08-25T04:32:46.394Z,1004.32
2022-08-25T04:33:46.377Z,1004.33
2022-08-25T04:34:46.356Z,1004.37
2022-08-25T04:35:46.353Z,1004.41
2022-08-25T04:36:46.326Z,1004.38
2022-08-25T04:37:47.324Z,1004.36
2022-08-25T04:38:46.307Z,1004.38
2022-08-25T04:39:46.352Z,1004.33
2022-08-25T04:40:46.277Z,1004.33
2022-08-25T04:41:46.266Z,1004.36
2022-08-25T04:42:48.099Z,1004.29
2022-08-25T04:43:46.251Z,1004.34
2022-08-25T04:44:46.219Z,1004.36
2022-08-25T04:45:46.249Z,1004.38
2022-08-25T04:46:46.207Z,1004.39
2022-08-25T04:47:46.207Z,1004.41
2022-08-25T04:48:46.177Z,1004.38
2022-08-25T04:49:46.166Z,1004.39
2022-08-25T04:50:46.136Z,1004.39
2022-08-25T04:51:46.140Z,1004.39
2022-08-25T04:52:46.125Z,1004.39
2022-08-25T04:53:46.107Z,1004.40
2022-08-25T04:54:46.091Z,1004.38
2022-08-25T04:55:46.089Z,1004.36
2022-08-25T04:56:46.075Z,1004.41
2022-08-25T04:57:46.065Z,1004.39
2022-08-25T04:58:46.197Z,1004.40
2022-08-25T04:59:46.028Z,1004.40
2022-08-25T05:00:48.846Z,1004.38
2022-08-25T05:01:45.998Z,1004.41
2022-08-25T05:02:45.988Z,1004.40
2022-08-25T05:03:45.989Z,1004.41
2022-08-25T05:04:46.079Z,1004.38
2022-08-25T05:05:45.960Z,1004.38
2022-08-25T05:06:45.973Z,1004.36
2022-08-25T05:07:45.945Z,1004.36
2022-08-25T05:08:46.302Z,1004.38
2022-08-25T05:09:45.885Z,1004.39
2022-08-25T05:10:45.908Z,1004.39
2022-08-25T05:11:45.881Z,1004.38
2022-08-25T05:12:45.865Z,1004.33
2022-08-25T05:13:51.150Z,1004.35
2022-08-25T05:14:46.824Z,1004.30
2022-08-25T05:15:45.797Z,1004.32
2022-08-25T05:16:45.872Z,1004.28
2022-08-25T05:17:45.776Z,1004.27
2022-08-25T05:18:45.772Z,1004.25
2022-08-25T05:19:45.756Z,1004.26
2022-08-25T05:20:45.747Z,1004.25
2022-08-25T05:21:45.975Z,1004.30
2022-08-25T05:22:45.723Z,1004.29
2022-08-25T05:23:45.710Z,1004.28
2022-08-25T05:24:45.696Z,1004.24
2022-08-25T05:25:45.682Z,1004.24
2022-08-25T05:26:45.692Z,1004.22
2022-08-25T05:27:45.648Z,1004.18
2022-08-25T05:28:45.648Z,1004.18
2022-08-25T05:29:45.617Z,1004.15
2022-08-25T05:30:45.608Z,1004.11
2022-08-25T05:31:50.011Z,1004.11
2022-08-25T05:32:47.135Z,1004.09
2022-08-25T05:33:45.566Z,1004.10
2022-08-25T05:34:45.570Z,1004.06
2022-08-25T05:35:45.536Z,1004.01
2022-08-25T05:36:45.537Z,1004.04
2022-08-25T05:37:45.506Z,1004.05
2022-08-25T05:38:45.515Z,1004.02
2022-08-25T05:39:45.549Z,1004.06
2022-08-25T05:40:45.476Z,1004.11
2022-08-25T05:41:45.466Z,1004.10
2022-08-25T05:42:45.447Z,1004.07
2022-08-25T05:43:45.439Z,1004.08
2022-08-25T05:44:45.435Z,1004.15
2022-08-25T05:45:45.434Z,1004.10
2022-08-25T05:46:45.425Z,1004.12
2022-08-25T05:47:45.379Z,1004.16
2022-08-25T05:48:45.369Z,1004.15
2022-08-25T05:49:45.369Z,1004.14
2022-08-25T05:50:45.340Z,1004.15
2022-08-25T05:51:45.348Z,1004.14
2022-08-25T05:52:45.308Z,1004.13
2022-08-25T05:53:45.308Z,1004.09
2022-08-25T05:54:45.319Z,1004.10
2022-08-25T05:55:45.282Z,1004.10
2022-08-25T05:56:45.291Z,1004.10
2022-08-25T05:57:45.238Z,1004.11
2022-08-25T05:58:45.241Z,1004.07
2022-08-25T05:59:45.221Z,1004.09
2022-08-25T06:00:45.256Z,1004.15
2022-08-25T06:01:45.506Z,1004.18
2022-08-25T06:02:45.182Z,1004.12
2022-08-25T06:03:45.185Z,1004.12
2022-08-25T06:04:57.174Z,1004.19
2022-08-25T06:05:45.143Z,1004.16
2022-08-25T06:06:45.148Z,1004.16
2022-08-25T06:07:45.106Z,1004.21
2022-08-25T06:08:45.106Z,1004.13
2022-08-25T06:09:45.096Z,1004.23
2022-08-25T06:10:45.074Z,1004.18
2022-08-25T06:11:45.075Z,1004.17
2022-08-25T06:12:45.066Z,1004.22
2022-08-25T06:13:45.038Z,1004.22
2022-08-25T06:14:45.034Z,1004.16
2022-08-25T06:15:45.041Z,1004.15
2022-08-25T06:16:45.024Z,1004.16
2022-08-25T06:17:44.998Z,1004.13
2022-08-25T06:18:44.980Z,1004.14
2022-08-25T06:19:44.976Z,1004.17
2022-08-25T06:20:44.958Z,1004.13
2022-08-25T06:21:44.945Z,1004.18
2022-08-25T06:22:44.917Z,1004.16
2022-08-25T06:23:44.902Z,1004.16
2022-08-25T06:24:44.906Z,1004.17
2022-08-25T06:25:44.909Z,1004.16
2022-08-25T06:26:44.878Z,1004.21
2022-08-25T06:27:44.915Z,1004.19
2022-08-25T06:28:44.848Z,1004.25
2022-08-25T06:29:44.828Z,1004.22
2022-08-25T06:30:44.809Z,1004.22
2022-08-25T06:31:44.902Z,1004.26
2022-08-25T06:32:44.815Z,1004.18
2022-08-25T06:33:44.775Z,1004.21
2022-08-25T06:34:44.768Z,1004.16
2022-08-25T06:35:44.764Z,1004.19
2022-08-25T06:36:44.751Z,1004.12
2022-08-25T06:37:44.739Z,1004.12
2022-08-25T06:38:44.725Z,1004.12
2022-08-25T06:39:44.794Z,1004.13
2022-08-25T06:40:44.713Z,1004.07
2022-08-25T06:41:44.682Z,1004.08
2022-08-25T06:42:44.670Z,1004.02
2022-08-25T06:43:49.006Z,1004.02
2022-08-25T06:44:45.645Z,1004.00
2022-08-25T06:45:44.630Z,1003.98
2022-08-25T06:46:44.722Z,1003.97
2022-08-25T06:47:45.471Z,1003.96
2022-08-25T06:48:44.580Z,1003.97
2022-08-25T06:49:44.570Z,1003.97
2022-08-25T06:50:44.571Z,1003.93
2022-08-25T06:51:44.551Z,1003.89
2022-08-25T06:52:44.532Z,1003.89
2022-08-25T06:53:44.522Z,1003.90
2022-08-25T06:54:44.503Z,1003.86
2022-08-25T06:55:44.497Z,1003.87
2022-08-25T06:56:44.492Z,1003.84
2022-08-25T06:57:44.463Z,1003.89
2022-08-25T06:58:44.474Z,1003.86
2022-08-25T06:59:44.450Z,1003.88
2022-08-25T07:00:44.485Z,1003.87
2022-08-25T07:01:44.613Z,1003.87
2022-08-25T07:02:44.429Z,1003.85
2022-08-25T07:03:44.392Z,1003.79
2022-08-25T07:04:44.374Z,1003.80
2022-08-25T07:05:44.373Z,1003.83
2022-08-25T07:06:44.345Z,1003.83
2022-08-25T07:07:44.404Z,1003.86
2022-08-25T07:08:44.325Z,1003.86
2022-08-25T07:09:44.318Z,1003.87
2022-08-25T07:10:44.311Z,1003.90
2022-08-25T07:11:44.285Z,1003.88
2022-08-25T07:12:44.275Z,1003.90
2022-08-25T07:13:44.265Z,1003.94
2022-08-25T07:14:58.146Z,1003.93
2022-08-25T07:15:45.294Z,1003.92
2022-08-25T07:16:48.736Z,1003.96
2022-08-25T07:17:45.251Z,1004.03
2022-08-25T07:18:44.315Z,1003.99
2022-08-25T07:19:44.178Z,1004.00
2022-08-25T07:20:44.189Z,1004.00
2022-08-25T07:21:44.158Z,1003.95
2022-08-25T07:22:44.159Z,1003.94
2022-08-25T07:23:44.148Z,1003.95
2022-08-25T07:24:44.133Z,1003.97
2022-08-25T07:25:44.118Z,1003.96
2022-08-25T07:26:44.143Z,1003.96
2022-08-25T07:27:44.090Z,1003.96
2022-08-25T07:28:47.331Z,1003.96
2022-08-25T07:29:44.054Z,1004.00
2022-08-25T07:30:44.062Z,1003.95
2022-08-25T07:31:44.101Z,1004.00
2022-08-25T07:32:44.030Z,1004.00
2022-08-25T07:33:44.019Z,1003.94
2022-08-25T07:34:44.106Z,1003.93
2022-08-25T07:35:43.994Z,1003.91
2022-08-25T07:36:43.993Z,1003.89
2022-08-25T07:37:49.124Z,1003.93
2022-08-25T07:38:44.943Z,1003.86
2022-08-25T07:39:43.931Z,1003.90
2022-08-25T07:40:43.954Z,1003.91
2022-08-25T07:41:43.915Z,1003.91
2022-08-25T07:42:43.903Z,1003.89
2022-08-25T07:43:43.895Z,1003.84
2022-08-25T07:44:43.889Z,1003.91
2022-08-25T07:45:49.205Z,1003.90
2022-08-25T07:46:44.894Z,1003.86
2022-08-25T07:47:43.823Z,1003.85
2022-08-25T07:48:43.829Z,1003.88
2022-08-25T07:49:44.813Z,1003.90
2022-08-25T07:50:43.792Z,1003.83
2022-08-25T07:51:44.203Z,1003.83
2022-08-25T07:52:44.782Z,1003.82
2022-08-25T07:53:44.753Z,1003.77
2022-08-25T07:54:43.766Z,1003.89
2022-08-25T07:55:45.086Z,1003.89
2022-08-25T07:56:43.714Z,1003.85
2022-08-25T07:57:43.706Z,1003.91
2022-08-25T07:58:43.705Z,1003.90
2022-08-25T07:59:43.685Z,1003.91
2022-08-25T08:00:43.676Z,1003.87
2022-08-25T08:01:43.691Z,1003.85
2022-08-25T08:02:43.693Z,1003.83
2022-08-25T08:03:50.317Z,1003.79
2022-08-25T08:04:44.625Z,1003.78
2022-08-25T08:05:43.595Z,1003.83
2022-08-25T08:06:43.642Z,1003.80
2022-08-25T08:07:43.976Z,1003.80
2022-08-25T08:08:43.928Z,1003.80
2022-08-25T08:09:43.565Z,1003.76
2022-08-25T08:11:04.154Z,1003.73
2022-08-25T08:11:53.641Z,1003.75
2022-08-25T08:12:44.550Z,1003.69
2022-08-25T08:13:43.532Z,1003.72
2022-08-25T08:14:44.881Z,1003.72
2022-08-25T08:15:43.539Z,1003.75
2022-08-25T08:16:43.496Z,1003.70
2022-08-25T08:17:43.446Z,1003.64
2022-08-25T08:18:43.438Z,1003.62
2022-08-25T08:19:45.352Z,1003.67
2022-08-25T08:20:43.450Z,1003.63
2022-08-25T08:21:43.392Z,1003.61
2022-08-25T08:22:43.398Z,1003.65
2022-08-25T08:23:43.401Z,1003.60
2022-08-25T08:24:44.858Z,1003.57
2022-08-25T08:25:44.349Z,1003.69
2022-08-25T08:26:57.736Z,1003.65
2022-08-25T08:27:44.339Z,1003.57
2022-08-25T08:28:43.330Z,1003.68
2022-08-25T08:29:43.302Z,1003.60
2022-08-25T08:30:53.336Z,1003.58
2022-08-25T08:31:48.698Z,1003.60
2022-08-25T08:33:08.243Z,1003.58
2022-08-25T08:33:44.246Z,1003.62
2022-08-25T08:34:43.240Z,1003.62
2022-08-25T08:35:43.234Z,1003.60
2022-08-25T08:36:43.203Z,1003.62
2022-08-25T08:37:43.194Z,1003.58
2022-08-25T08:38:43.203Z,1003.51
2022-08-25T08:39:43.198Z,1003.57
2022-08-25T08:40:43.162Z,1003.51
2022-08-25T08:42:07.683Z,1003.49
2022-08-25T08:42:46.767Z,1003.45
2022-08-25T08:43:43.126Z,1003.42
2022-08-25T08:44:43.124Z,1003.41
2022-08-25T08:45:43.956Z,1003.42
2022-08-25T08:46:43.144Z,1003.40
2022-08-25T08:47:43.073Z,1003.34
2022-08-25T08:48:43.062Z,1003.35
2022-08-25T08:49:43.045Z,1003.31
2022-08-25T08:50:43.024Z,1003.30
2022-08-25T08:51:43.015Z,1003.32
2022-08-25T08:52:43.040Z,1003.37
2022-08-25T08:53:42.993Z,1003.36
2022-08-25T08:54:42.984Z,1003.33
2022-08-25T08:55:42.982Z,1003.43
2022-08-25T08:56:45.231Z,1003.35
2022-08-25T08:57:43.005Z,1003.33
2022-08-25T08:58:42.925Z,1003.33
2022-08-25T08:59:42.934Z,1003.31
2022-08-25T09:00:42.903Z,1003.29
2022-08-25T09:01:43.918Z,1003.29
2022-08-25T09:02:52.052Z,1003.25
2022-08-25T09:03:43.877Z,1003.25
2022-08-25T09:04:42.865Z,1003.25
2022-08-25T09:05:46.595Z,1003.27
2022-08-25T09:06:42.819Z,1003.29
2022-08-25T09:07:42.810Z,1003.32
2022-08-25T09:08:44.464Z,1003.27
2022-08-25T09:09:42.780Z,1003.29
2022-08-25T09:10:42.779Z,1003.24
2022-08-25T09:11:42.757Z,1003.26
2022-08-25T09:12:48.241Z,1003.17
2022-08-25T09:13:43.760Z,1003.27
2022-08-25T09:14:42.751Z,1003.25
2022-08-25T09:15:42.735Z,1003.11
2022-08-25T09:16:42.717Z,1003.20
2022-08-25T09:17:42.672Z,1003.15
2022-08-25T09:18:50.968Z,1003.20
2022-08-25T09:19:43.677Z,1003.17
2022-08-25T09:20:42.641Z,1003.22
2022-08-25T09:21:42.633Z,1003.19
2022-08-25T09:22:42.620Z,1003.16
2022-08-25T09:23:42.612Z,1003.16
2022-08-25T09:24:42.593Z,1003.16
2022-08-25T09:25:53.153Z,1003.08
2022-08-25T09:26:43.563Z,1003.13
2022-08-25T09:27:42.553Z,1003.11
2022-08-25T09:28:42.577Z,1003.11
2022-08-25T09:29:42.539Z,1003.12
2022-08-25T09:30:42.521Z,1003.14
2022-08-25T09:31:42.569Z,1003.09
2022-08-25T09:32:42.485Z,1003.13
2022-08-25T09:33:43.502Z,1003.11
2022-08-25T09:34:42.462Z,1003.17
2022-08-25T09:35:42.445Z,1003.12
2022-08-25T09:36:42.439Z,1003.05
2022-08-25T09:37:42.433Z,1003.07
2022-08-25T09:38:42.425Z,1003.05
2022-08-25T09:39:42.416Z,1003.01
2022-08-25T09:40:42.572Z,1003.03
2022-08-25T09:41:42.389Z,1003.02
2022-08-25T09:42:42.366Z,1003.00
2022-08-25T09:43:42.367Z,1002.95
2022-08-25T09:44:42.347Z,1002.95
2022-08-25T09:45:42.603Z,1002.92
2022-08-25T09:46:42.347Z,1002.96
2022-08-25T09:47:42.308Z,1002.95
2022-08-25T09:48:42.301Z,1002.86
2022-08-25T09:49:42.280Z,1002.87
2022-08-25T09:50:46.688Z,1002.91
2022-08-25T09:51:43.324Z,1002.90
2022-08-25T09:52:42.237Z,1002.96
2022-08-25T09:53:42.249Z,1002.90
2022-08-25T09:54:44.265Z,1002.88
2022-08-25T09:55:42.199Z,1002.91
2022-08-25T09:56:42.178Z,1002.93
2022-08-25T09:57:42.179Z,1002.90
2022-08-25T09:58:42.161Z,1002.89
2022-08-25T09:59:42.148Z,1002.90
2022-08-25T10:00:43.170Z,1002.83
2022-08-25T10:01:42.168Z,1002.77
2022-08-25T10:02:42.111Z,1002.72
2022-08-25T10:03:42.120Z,1002.74
2022-08-25T10:04:42.110Z,1002.74
2022-08-25T10:05:42.089Z,1002.69
2022-08-25T10:06:42.068Z,1002.69
2022-08-25T10:07:42.060Z,1002.70
2022-08-25T10:08:42.079Z,1002.66
2022-08-25T10:09:42.023Z,1002.67
2022-08-25T10:10:42.100Z,1002.66
2022-08-25T10:11:41.990Z,1002.64
2022-08-25T10:12:42.963Z,1002.58
2022-08-25T10:13:42.003Z,1002.67
2022-08-25T10:14:44.289Z,1002.59
2022-08-25T10:15:41.986Z,1002.56
2022-08-25T10:16:41.947Z,1002.54
2022-08-25T10:17:42.921Z,1002.54
2022-08-25T10:18:41.893Z,1002.53
2022-08-25T10:19:41.895Z,1002.47
2022-08-25T10:20:44.556Z,1002.46
2022-08-25T10:21:41.863Z,1002.44
2022-08-25T10:22:41.904Z,1002.48
2022-08-25T10:23:41.860Z,1002.46
2022-08-25T10:24:44.222Z,1002.44
2022-08-25T10:25:41.814Z,1002.47
2022-08-25T10:26:42.815Z,1002.42
2022-08-25T10:27:41.821Z,1002.44
2022-08-25T10:28:41.764Z,1002.41
2022-08-25T10:29:41.770Z,1002.40
2022-08-25T10:30:41.850Z,1002.49
2022-08-25T10:31:41.735Z,1002.40
2022-08-25T10:32:41.731Z,1002.37
2022-08-25T10:33:41.757Z,1002.37
2022-08-25T10:34:44.481Z,1002.35
2022-08-25T10:35:41.674Z,1002.40
2022-08-25T10:36:41.667Z,1002.38
2022-08-25T10:37:42.693Z,1002.33
2022-08-25T10:38:43.150Z,1002.37
2022-08-25T10:39:41.645Z,1002.33
2022-08-25T10:40:41.668Z,1002.34
2022-08-25T10:41:41.637Z,1002.30
2022-08-25T10:42:42.739Z,1002.28
2022-08-25T10:43:41.584Z,1002.26
2022-08-25T10:44:41.583Z,1002.28
2022-08-25T10:45:41.576Z,1002.22
2022-08-25T10:46:41.641Z,1002.22
2022-08-25T10:47:41.585Z,1002.29
2022-08-25T10:48:41.525Z,1002.23
2022-08-25T10:49:41.527Z,1002.20
2022-08-25T10:50:45.371Z,1002.16
2022-08-25T10:51:41.505Z,1002.22
2022-08-25T10:52:41.487Z,1002.16
2022-08-25T10:53:41.458Z,1002.14
2022-08-25T10:54:41.432Z,1002.14
2022-08-25T10:55:41.430Z,1002.17
2022-08-25T10:56:41.436Z,1002.18
2022-08-25T10:57:41.467Z,1002.16
2022-08-25T10:58:41.390Z,1002.16
2022-08-25T10:59:41.387Z,1002.09
2022-08-25T11:00:41.385Z,1002.04
2022-08-25T11:01:44.047Z,1002.06
2022-08-25T11:02:41.577Z,1002.04
2022-08-25T11:03:41.322Z,1002.03
2022-08-25T11:04:42.157Z,1001.97
2022-08-25T11:05:41.384Z,1002.09
2022-08-25T11:06:41.310Z,1002.02
2022-08-25T11:07:41.302Z,1001.94
2022-08-25T11:08:41.249Z,1001.96
2022-08-25T11:09:41.241Z,1001.94
2022-08-25T11:10:41.233Z,1001.92
2022-08-25T11:11:41.225Z,1001.91
2022-08-25T11:12:41.210Z,1001.94
2022-08-25T11:13:41.201Z,1001.96
2022-08-25T11:14:41.195Z,1001.95
2022-08-25T11:15:50.291Z,1002.00
2022-08-25T11:16:42.170Z,1001.91
2022-08-25T11:17:41.939Z,1001.87
2022-08-25T11:18:41.124Z,1001.93
2022-08-25T11:19:41.125Z,1001.87
2022-08-25T11:20:41.104Z,1001.83
2022-08-25T11:21:41.111Z,1001.84
2022-08-25T11:22:41.121Z,1001.80
2022-08-25T11:23:41.094Z,1001.87
2022-08-25T11:24:41.057Z,1001.81
2022-08-25T11:25:41.064Z,1001.82
2022-08-25T11:26:41.042Z,1001.82
2022-08-25T11:27:41.042Z,1001.78
2022-08-25T11:28:40.993Z,1001.68
2022-08-25T11:29:40.983Z,1001.70
2022-08-25T11:30:41.037Z,1001.70
2022-08-25T11:31:40.964Z,1001.71
2022-08-25T11:32:40.983Z,1001.67
2022-08-25T11:33:40.942Z,1001.65
2022-08-25T11:34:43.705Z,1001.64
2022-08-25T11:35:40.925Z,1001.63
2022-08-25T11:36:40.895Z,1001.64
2022-08-25T11:37:40.897Z,1001.66
2022-08-25T11:38:40.874Z,1001.57
2022-08-25T11:39:40.884Z,1001.58
2022-08-25T11:40:40.854Z,1001.63
2022-08-25T11:41:40.834Z,1001.65
2022-08-25T11:42:40.833Z,1001.67
2022-08-25T11:43:40.818Z,1001.62
2022-08-25T11:44:51.808Z,1001.62
2022-08-25T11:45:41.828Z,1001.61
2022-08-25T11:46:40.798Z,1001.63
2022-08-25T11:47:40.783Z,1001.59
2022-08-25T11:48:40.740Z,1001.63
2022-08-25T11:49:40.732Z,1001.68
2022-08-25T11:50:40.708Z,1001.66
2022-08-25T11:51:40.707Z,1001.68
2022-08-25T11:52:40.718Z,1001.64
2022-08-25T11:53:41.762Z,1001.63
2022-08-25T11:54:41.667Z,1001.67
2022-08-25T11:55:40.675Z,1001.64
2022-08-25T11:56:40.641Z,1001.63
2022-08-25T11:57:40.655Z,1001.63
2022-08-25T11:58:40.869Z,1001.56
2022-08-25T11:59:40.607Z,1001.61
2022-08-25T12:00:41.043Z,1001.60
2022-08-25T12:01:40.591Z,1001.57
2022-08-25T12:02:40.559Z,1001.59
2022-08-25T12:03:40.564Z,1001.59
2022-08-25T12:04:53.009Z,1001.56
2022-08-25T12:05:40.559Z,1001.56